createdAt,value
2022-10-07T00:00:51.875Z,13.92
2022-10-07T00:03:20.233Z,13.96
2022-10-07T00:05:47.302Z,13.98
2022-10-07T00:08:14.210Z,13.92
2022-10-07T00:10:42.287Z,13.95
2022-10-07T00:13:12.305Z,13.95
2022-10-07T00:15:39.465Z,13.93
2022-10-07T00:18:06.733Z,13.96
2022-10-07T00:20:40.256Z,13.98
2022-10-07T00:23:08.165Z,13.95
2022-10-07T00:25:38.431Z,13.99
2022-10-07T00:28:05.703Z,14.02
2022-10-07T00:30:32.830Z,14.04
2022-10-07T00:32:59.924Z,14.07
2022-10-07T00:35:26.708Z,14.03
2022-10-07T00:37:53.848Z,14.05
2022-10-07T00:40:20.536Z,14.02
2022-10-07T00:42:47.404Z,14.03
2022-10-07T00:45:17.372Z,14.08
2022-10-07T00:47:49.222Z,14.08
2022-10-07T00:50:21.383Z,14.12
2022-10-07T00:52:52.073Z,14.17
2022-10-07T00:55:21.741Z,14.13
2022-10-07T00:57:49.188Z,14.15
2022-10-07T01:00:16.179Z,14.15
2022-10-07T01:02:43.155Z,14.21
2022-10-07T01:05:10.810Z,14.22
2022-10-07T01:07:38.263Z,14.20
2022-10-07T01:10:05.692Z,14.20
2022-10-07T01:12:41.331Z,14.16
2022-10-07T01:15:34.611Z,14.07
2022-10-07T01:18:31.485Z,14.01
2022-10-07T01:21:12.015Z,13.94
2022-10-07T01:23:56.956Z,13.97
2022-10-07T01:26:33.948Z,13.96
2022-10-07T01:29:08.559Z,13.93
2022-10-07T01:31:39.123Z,13.89
2022-10-07T01:34:07.746Z,13.92
2022-10-07T01:36:37.056Z,13.93
2022-10-07T01:39:09.275Z,13.91
2022-10-07T01:41:37.013Z,13.93
2022-10-07T01:44:04.069Z,13.88
2022-10-07T01:46:31.307Z,13.83
2022-10-07T01:49:01.123Z,13.89
2022-10-07T01:51:29.937Z,13.90
2022-10-07T01:54:05.843Z,13.92
2022-10-07T01:56:58.674Z,13.94
2022-10-07T01:59:58.341Z,13.98
2022-10-07T02:02:28.240Z,13.97
2022-10-07T02:05:10.403Z,13.99
2022-10-07T02:08:05.137Z,14.01
2022-10-07T02:10:50.640Z,13.94
2022-10-07T02:13:35.281Z,13.95
2022-10-07T02:16:33.390Z,13.98
2022-10-07T02:19:04.215Z,13.99
2022-10-07T02:21:32.759Z,14.02
2022-10-07T02:24:00.785Z,13.96
2022-10-07T02:26:28.240Z,13.90
2022-10-07T02:28:56.531Z,13.96
2022-10-07T02:31:30.475Z,14.02
2022-10-07T02:33:59.778Z,14.05
2022-10-07T02:36:30.956Z,14.08
2022-10-07T02:38:58.500Z,14.05
2022-10-07T02:41:50.965Z,14.07
2022-10-07T02:44:28.253Z,14.07
2022-10-07T02:47:10.768Z,14.08
2022-10-07T02:49:40.005Z,14.13
2022-10-07T02:52:09.495Z,14.15
2022-10-07T02:54:48.431Z,14.12
2022-10-07T02:57:17.972Z,14.14
2022-10-07T02:59:47.525Z,14.12
2022-10-07T03:02:21.009Z,14.13
2022-10-07T03:04:48.388Z,14.04
2022-10-07T03:07:15.405Z,14.01
2022-10-07T03:09:43.144Z,14.05
2022-10-07T03:12:11.930Z,14.02
2022-10-07T03:14:39.634Z,13.98
2022-10-07T03:17:08.064Z,14.03
2022-10-07T03:19:35.142Z,14.03
2022-10-07T03:22:02.439Z,14.04
2022-10-07T03:24:31.697Z,14.08
2022-10-07T03:26:58.584Z,14.10
2022-10-07T03:29:26.348Z,14.12
2022-10-07T03:31:56.094Z,14.03
2022-10-07T03:34:23.246Z,13.93
2022-10-07T03:36:50.390Z,13.95
2022-10-07T03:39:17.073Z,13.94
2022-10-07T03:41:43.878Z,13.94
2022-10-07T03:44:11.187Z,13.97
2022-10-07T03:46:37.960Z,13.98
2022-10-07T03:49:04.892Z,13.99
2022-10-07T03:51:31.580Z,14.00
2022-10-07T03:53:59.886Z,14.01
2022-10-07T03:56:30.631Z,14.03
2022-10-07T03:58:57.229Z,14.00
2022-10-07T04:01:24.907Z,14.03
2022-10-07T04:03:56.331Z,14.02
2022-10-07T04:06:24.352Z,14.04
2022-10-07T04:08:55.468Z,14.06
2022-10-07T04:11:24.275Z,14.07
2022-10-07T04:13:55.645Z,14.14
2022-10-07T04:16:25.005Z,14.13
2022-10-07T04:18:55.273Z,14.14
2022-10-07T04:21:23.111Z,14.14
2022-10-07T04:23:49.902Z,14.16
2022-10-07T04:26:16.907Z,14.16
2022-10-07T04:28:49.223Z,14.13
2022-10-07T04:31:19.172Z,14.13
2022-10-07T04:33:50.039Z,14.10
2022-10-07T04:36:22.292Z,14.00
2022-10-07T04:38:55.351Z,13.96
2022-10-07T04:41:26.533Z,14.02
2022-10-07T04:43:57.673Z,14.08
2022-10-07T04:46:28.454Z,14.11
2022-10-07T04:49:00.995Z,14.13
2022-10-07T04:51:29.634Z,14.11
2022-10-07T04:53:58.383Z,14.13
2022-10-07T04:56:31.447Z,14.17
2022-10-07T04:59:00.560Z,14.11
2022-10-07T05:01:27.340Z,14.14
2022-10-07T05:03:54.676Z,14.15
2022-10-07T05:06:21.341Z,14.17
2022-10-07T05:08:48.678Z,14.18
2022-10-07T05:11:15.930Z,14.18
2022-10-07T05:13:52.572Z,14.15
2022-10-07T05:16:20.693Z,14.16
2022-10-07T05:18:47.360Z,14.12
2022-10-07T05:21:14.828Z,14.16
2022-10-07T05:23:45.128Z,14.20
2022-10-07T05:26:16.211Z,14.18
2022-10-07T05:28:49.406Z,14.19
2022-10-07T05:31:21.223Z,14.16
2022-10-07T05:33:52.752Z,14.18
2022-10-07T05:36:22.006Z,14.20
2022-10-07T05:38:50.055Z,14.26
2022-10-07T05:41:17.447Z,14.32
2022-10-07T05:43:46.709Z,14.36
2022-10-07T05:46:20.471Z,14.41
2022-10-07T05:48:53.033Z,14.42
2022-10-07T05:51:24.469Z,14.43
2022-10-07T05:53:55.838Z,14.40
2022-10-07T05:56:25.043Z,14.40
2022-10-07T05:58:54.099Z,14.43
2022-10-07T06:01:21.979Z,14.49
2022-10-07T06:03:54.281Z,14.55
2022-10-07T06:06:23.325Z,14.61
2022-10-07T06:08:52.474Z,14.67
2022-10-07T06:11:39.418Z,14.74
2022-10-07T06:14:07.413Z,14.82
2022-10-07T06:16:34.577Z,14.89
2022-10-07T06:19:01.570Z,14.94
2022-10-07T06:21:30.787Z,15.00
2022-10-07T06:24:01.471Z,15.06
2022-10-07T06:26:34.038Z,15.07
2022-10-07T06:29:01.399Z,15.05
2022-10-07T06:31:28.367Z,15.12
2022-10-07T06:34:00.437Z,15.23
2022-10-07T06:36:27.878Z,15.34
2022-10-07T06:38:56.831Z,15.49
2022-10-07T06:41:29.991Z,15.50
2022-10-07T06:44:19.532Z,15.55
2022-10-07T06:46:46.185Z,15.61
2022-10-07T06:49:12.787Z,15.67
2022-10-07T06:51:39.480Z,15.67
2022-10-07T06:54:06.167Z,15.75
2022-10-07T06:56:32.936Z,15.80
2022-10-07T06:58:59.913Z,15.85
2022-10-07T07:01:34.150Z,15.86
2022-10-07T07:04:00.894Z,15.92
2022-10-07T07:06:28.049Z,15.89
2022-10-07T07:08:56.016Z,15.88
2022-10-07T07:11:38.137Z,16.01
2022-10-07T07:14:12.337Z,16.22
2022-10-07T07:16:42.260Z,16.28
2022-10-07T07:19:11.221Z,16.39
2022-10-07T07:21:40.837Z,16.44
2022-10-07T07:24:10.256Z,16.38
2022-10-07T07:26:39.515Z,16.46
2022-10-07T07:29:08.325Z,16.41
2022-10-07T07:31:44.115Z,16.41
2022-10-07T07:34:12.966Z,16.47
2022-10-07T07:36:46.940Z,16.40
2022-10-07T07:39:16.172Z,16.51
2022-10-07T07:41:47.858Z,16.60
2022-10-07T07:44:18.051Z,16.53
2022-10-07T07:46:52.164Z,16.67
2022-10-07T07:49:21.846Z,16.81
2022-10-07T07:51:49.133Z,16.81
2022-10-07T07:54:28.919Z,16.80
2022-10-07T07:56:56.384Z,16.88
2022-10-07T07:59:25.384Z,16.97
2022-10-07T08:01:55.117Z,17.06
2022-10-07T08:04:21.935Z,17.16
2022-10-07T08:06:48.823Z,17.31
2022-10-07T08:09:16.244Z,17.37
2022-10-07T08:11:45.468Z,17.27
2022-10-07T08:14:16.090Z,17.36
2022-10-07T08:16:47.346Z,17.43
2022-10-07T08:19:14.003Z,17.47
2022-10-07T08:21:40.748Z,17.55
2022-10-07T08:24:12.442Z,17.57
2022-10-07T08:26:39.708Z,17.55
2022-10-07T08:29:09.391Z,17.69
2022-10-07T08:31:36.190Z,17.84
2022-10-07T08:34:04.015Z,17.93
2022-10-07T08:36:34.417Z,18.00
2022-10-07T08:39:02.140Z,17.99
2022-10-07T08:41:39.382Z,18.06
2022-10-07T08:44:17.872Z,18.03
2022-10-07T08:46:51.709Z,18.24
2022-10-07T08:49:43.209Z,18.21
2022-10-07T08:52:17.990Z,18.09
2022-10-07T08:54:44.703Z,18.05
2022-10-07T08:57:23.105Z,18.03
2022-10-07T08:59:53.851Z,18.04
2022-10-07T09:03:20.357Z,18.13
2022-10-07T09:05:51.830Z,18.20
2022-10-07T09:08:27.468Z,18.21
2022-10-07T09:10:56.067Z,18.26
2022-10-07T09:13:28.275Z,18.38
2022-10-07T09:16:21.228Z,18.50
2022-10-07T09:18:54.122Z,18.55
2022-10-07T09:21:23.870Z,18.54
2022-10-07T09:23:57.566Z,18.47
2022-10-07T09:26:26.471Z,18.65
2022-10-07T09:28:53.142Z,18.74
2022-10-07T09:31:21.131Z,18.82
2022-10-07T09:33:50.438Z,18.81
2022-10-07T09:36:18.387Z,18.61
2022-10-07T09:38:49.690Z,18.77
2022-10-07T09:41:35.388Z,18.65
2022-10-07T09:44:07.100Z,18.61
2022-10-07T09:46:46.909Z,18.58
2022-10-07T09:49:28.633Z,18.70
2022-10-07T09:52:02.954Z,18.78
2022-10-07T09:54:32.636Z,18.79
2022-10-07T09:57:01.029Z,18.81
2022-10-07T09:59:29.900Z,18.87
2022-10-07T10:02:15.425Z,18.81
2022-10-07T10:04:51.110Z,18.80
2022-10-07T10:07:17.680Z,18.91
2022-10-07T10:09:52.321Z,18.90
2022-10-07T10:12:20.691Z,18.77
2022-10-07T10:15:00.725Z,18.75
2022-10-07T10:17:34.637Z,18.91
2022-10-07T10:20:24.050Z,18.95
2022-10-07T10:22:52.134Z,19.04
2022-10-07T10:25:56.158Z,18.97
2022-10-07T10:28:38.430Z,18.97
2022-10-07T10:31:18.476Z,18.98
2022-10-07T10:33:54.461Z,19.03
2022-10-07T10:36:23.004Z,19.08
2022-10-07T10:39:04.348Z,19.15
2022-10-07T10:41:45.204Z,19.05
2022-10-07T10:44:32.361Z,19.13
2022-10-07T10:47:21.365Z,19.16
2022-10-07T10:50:22.156Z,19.28
2022-10-07T10:53:09.096Z,19.41
2022-10-07T10:56:08.301Z,19.57
2022-10-07T10:58:52.921Z,19.53
2022-10-07T11:01:32.906Z,19.48
2022-10-07T11:04:08.787Z,19.52
2022-10-07T11:06:37.250Z,19.43
2022-10-07T11:09:05.976Z,19.52
2022-10-07T11:11:34.436Z,19.61
2022-10-07T11:14:05.739Z,19.33
2022-10-07T11:16:39.935Z,19.29
2022-10-07T11:19:09.295Z,19.53
2022-10-07T11:21:48.703Z,19.43
2022-10-07T11:24:19.971Z,19.41
2022-10-07T11:26:56.544Z,19.34
2022-10-07T11:29:29.251Z,19.37
2022-10-07T11:32:24.426Z,19.32
2022-10-07T11:35:03.393Z,19.40
2022-10-07T11:38:01.729Z,19.38
2022-10-07T11:40:31.338Z,19.41
2022-10-07T11:43:06.466Z,19.49
2022-10-07T11:45:42.601Z,19.35
2022-10-07T11:48:18.594Z,19.28
2022-10-07T11:51:41.119Z,19.52
2022-10-07T11:54:19.144Z,19.48
2022-10-07T11:56:54.139Z,19.47
2022-10-07T11:59:38.257Z,19.52
2022-10-07T12:02:05.321Z,19.58
2022-10-07T12:04:35.355Z,19.61
2022-10-07T12:07:33.056Z,19.57
2022-10-07T12:10:03.414Z,19.57
2022-10-07T12:12:45.264Z,19.72
2022-10-07T12:15:42.164Z,19.56
2022-10-07T12:18:17.146Z,19.71
2022-10-07T12:20:50.162Z,19.72
2022-10-07T12:23:20.477Z,19.46
2022-10-07T12:26:04.208Z,19.63
2022-10-07T12:28:36.769Z,19.59
2022-10-07T12:31:23.699Z,19.77
2022-10-07T12:34:00.211Z,19.73
2022-10-07T12:36:27.903Z,19.76
2022-10-07T12:38:55.950Z,19.90
2022-10-07T12:41:35.365Z,19.96
2022-10-07T12:44:31.575Z,19.87
2022-10-07T12:47:02.036Z,19.83
2022-10-07T12:49:43.024Z,19.85
2022-10-07T12:52:19.057Z,19.90
2022-10-07T12:54:55.128Z,19.79
2022-10-07T12:57:23.565Z,20.02
2022-10-07T12:59:59.109Z,19.91
2022-10-07T13:02:34.387Z,19.89
2022-10-07T13:05:16.078Z,19.84
2022-10-07T13:08:01.160Z,19.69
2022-10-07T13:10:37.744Z,19.95
2022-10-07T13:13:19.176Z,19.83
2022-10-07T13:15:57.495Z,19.74
2022-10-07T13:18:35.606Z,19.91
2022-10-07T13:21:19.934Z,19.85
2022-10-07T13:23:54.470Z,19.90
2022-10-07T13:26:22.307Z,19.91
2022-10-07T13:28:51.188Z,19.92
2022-10-07T13:31:23.503Z,19.88
2022-10-07T13:33:50.501Z,19.92
2022-10-07T13:36:20.114Z,19.76
2022-10-07T13:38:48.487Z,19.69
2022-10-07T13:41:20.211Z,19.78
2022-10-07T13:43:52.572Z,19.89
2022-10-07T13:46:19.362Z,19.86
2022-10-07T13:48:46.258Z,19.89
2022-10-07T13:51:42.376Z,19.97
2022-10-07T13:54:20.138Z,20.05
2022-10-07T13:56:48.737Z,19.98
2022-10-07T13:59:18.644Z,19.90
2022-10-07T14:01:48.660Z,19.90
2022-10-07T14:04:20.004Z,20.00
2022-10-07T14:06:56.102Z,19.95
2022-10-07T14:09:31.715Z,19.95
2022-10-07T14:12:09.418Z,19.99
2022-10-07T14:14:40.958Z,19.98
2022-10-07T14:17:11.346Z,19.90
2022-10-07T14:19:39.344Z,19.71
2022-10-07T14:22:19.837Z,19.68
2022-10-07T14:24:54.787Z,19.59
2022-10-07T14:27:41.800Z,19.39
2022-10-07T14:30:57.157Z,19.43
2022-10-07T14:33:49.225Z,19.24
2022-10-07T14:36:25.031Z,19.26
2022-10-07T14:38:52.873Z,19.35
2022-10-07T14:41:21.612Z,19.35
2022-10-07T14:43:49.884Z,19.43
2022-10-07T14:46:23.307Z,19.39
2022-10-07T14:48:50.920Z,19.20
2022-10-07T14:51:23.544Z,19.23
2022-10-07T14:53:52.475Z,19.34
2022-10-07T14:56:25.376Z,19.34
2022-10-07T14:58:52.227Z,19.32
2022-10-07T15:01:19.757Z,19.28
2022-10-07T15:03:48.711Z,19.21
2022-10-07T15:06:16.833Z,19.17
2022-10-07T15:08:44.464Z,19.18
2022-10-07T15:11:15.504Z,19.16
2022-10-07T15:13:51.720Z,19.09
2022-10-07T15:16:24.950Z,18.92
2022-10-07T15:18:53.171Z,18.89
2022-10-07T15:21:21.872Z,18.99
2022-10-07T15:23:54.822Z,18.89
2022-10-07T15:26:24.301Z,18.90
2022-10-07T15:28:56.420Z,18.80
2022-10-07T15:31:25.081Z,18.84
2022-10-07T15:33:51.965Z,18.86
2022-10-07T15:36:18.689Z,18.84
2022-10-07T15:38:45.922Z,18.79
2022-10-07T15:41:29.176Z,18.77
2022-10-07T15:43:58.556Z,18.64
2022-10-07T15:46:25.474Z,18.66
2022-10-07T15:48:56.319Z,18.59
2022-10-07T15:51:24.670Z,18.53
2022-10-07T15:53:52.091Z,18.41
2022-10-07T15:56:18.845Z,18.36
2022-10-07T15:58:46.156Z,18.29
2022-10-07T16:01:12.809Z,18.25
2022-10-07T16:03:44.499Z,18.13
2022-10-07T16:06:20.792Z,18.08
2022-10-07T16:08:49.735Z,18.02
2022-10-07T16:11:17.131Z,18.04
2022-10-07T16:13:45.309Z,18.01
2022-10-07T16:16:14.434Z,18.05
2022-10-07T16:18:43.346Z,17.99
2022-10-07T16:21:18.080Z,17.90
2022-10-07T16:23:46.256Z,17.85
2022-10-07T16:26:18.236Z,17.78
2022-10-07T16:29:05.581Z,17.71
2022-10-07T16:31:33.711Z,17.67
2022-10-07T16:34:00.483Z,17.63
2022-10-07T16:36:27.161Z,17.59
2022-10-07T16:38:54.348Z,17.54
2022-10-07T16:41:21.572Z,17.52
2022-10-07T16:43:48.231Z,17.46
2022-10-07T16:46:19.752Z,17.38
2022-10-07T16:48:48.258Z,17.36
2022-10-07T16:51:22.926Z,17.31
2022-10-07T16:53:52.922Z,17.22
2022-10-07T16:56:20.431Z,17.18
2022-10-07T16:58:47.305Z,17.09
2022-10-07T17:01:16.934Z,16.99
2022-10-07T17:03:46.878Z,17.00
2022-10-07T17:06:14.829Z,17.01
2022-10-07T17:08:48.349Z,17.00
2022-10-07T17:11:29.439Z,16.98
2022-10-07T17:14:00.553Z,16.94
2022-10-07T17:16:29.885Z,16.89
2022-10-07T17:18:56.890Z,16.84
2022-10-07T17:21:23.535Z,16.85
2022-10-07T17:23:50.438Z,16.82
2022-10-07T17:26:17.474Z,16.78
2022-10-07T17:28:44.212Z,16.77
2022-10-07T17:31:12.987Z,16.85
2022-10-07T17:33:41.084Z,16.85
2022-10-07T17:36:08.707Z,16.85
2022-10-07T17:38:43.741Z,16.87
2022-10-07T17:41:31.528Z,16.82
2022-10-07T17:44:00.026Z,16.86
2022-10-07T17:46:32.680Z,16.76
2022-10-07T17:49:00.921Z,16.75
2022-10-07T17:51:30.006Z,16.70
2022-10-07T17:53:59.621Z,16.69
2022-10-07T17:56:27.576Z,16.70
2022-10-07T17:58:54.316Z,16.62
2022-10-07T18:01:24.207Z,16.56
2022-10-07T18:03:52.678Z,16.54
2022-10-07T18:06:19.810Z,16.51
2022-10-07T18:08:48.176Z,16.51
2022-10-07T18:11:18.116Z,16.48
2022-10-07T18:14:04.005Z,16.52
2022-10-07T18:16:34.871Z,16.44
2022-10-07T18:19:01.951Z,16.43
2022-10-07T18:21:30.342Z,16.43
2022-10-07T18:23:57.651Z,16.45
2022-10-07T18:26:24.656Z,16.43
2022-10-07T18:28:51.377Z,16.40
2022-10-07T18:31:18.651Z,16.35
2022-10-07T18:33:46.303Z,16.27
2022-10-07T18:36:15.367Z,16.25
2022-10-07T18:38:43.637Z,16.23
2022-10-07T18:41:15.616Z,16.26
2022-10-07T18:43:43.601Z,16.22
2022-10-07T18:46:15.940Z,16.23
2022-10-07T18:48:43.389Z,16.22
2022-10-07T18:51:11.535Z,16.24
2022-10-07T18:53:39.624Z,16.22
2022-10-07T18:56:09.022Z,16.29
2022-10-07T18:58:37.531Z,16.27
2022-10-07T19:01:12.855Z,16.29
2022-10-07T19:03:40.192Z,16.26
2022-10-07T19:06:08.999Z,16.23
2022-10-07T19:08:35.972Z,16.18
2022-10-07T19:11:04.563Z,16.21
2022-10-07T19:13:50.383Z,16.23
2022-10-07T19:16:19.474Z,16.23
2022-10-07T19:18:47.488Z,16.28
2022-10-07T19:21:15.372Z,16.25
2022-10-07T19:23:42.123Z,16.21
2022-10-07T19:26:09.022Z,16.19
2022-10-07T19:28:37.719Z,16.19
2022-10-07T19:31:18.958Z,16.17
2022-10-07T19:33:47.322Z,16.16
2022-10-07T19:36:14.682Z,16.17
2022-10-07T19:38:44.279Z,16.18
2022-10-07T19:41:15.225Z,16.20
2022-10-07T19:43:42.969Z,16.21
2022-10-07T19:46:11.139Z,16.26
2022-10-07T19:48:38.691Z,16.27
2022-10-07T19:51:08.718Z,16.29
2022-10-07T19:53:36.057Z,16.28
2022-10-07T19:56:11.794Z,16.33
2022-10-07T19:58:38.585Z,16.31
2022-10-07T20:01:07.474Z,16.35
2022-10-07T20:03:35.040Z,16.35
2022-10-07T20:06:07.879Z,16.35
2022-10-07T20:08:40.249Z,16.29
2022-10-07T20:11:07.828Z,16.30
2022-10-07T20:13:38.440Z,16.32
2022-10-07T20:16:19.239Z,16.30
2022-10-07T20:18:47.976Z,16.29
2022-10-07T20:21:17.611Z,16.29
2022-10-07T20:23:45.693Z,16.23
2022-10-07T20:26:19.052Z,16.22
2022-10-07T20:28:47.724Z,16.22
2022-10-07T20:31:16.598Z,16.27
2022-10-07T20:33:48.266Z,16.29
2022-10-07T20:36:17.722Z,16.26
2022-10-07T20:39:02.987Z,16.20
2022-10-07T20:41:49.240Z,16.21
2022-10-07T20:44:17.651Z,16.18
2022-10-07T20:46:44.835Z,16.16
2022-10-07T20:49:22.736Z,16.12
2022-10-07T20:51:54.770Z,16.16
2022-10-07T20:54:22.920Z,16.14
2022-10-07T20:56:51.880Z,16.12
2022-10-07T20:59:19.160Z,16.09
2022-10-07T21:01:48.583Z,16.10
2022-10-07T21:04:15.744Z,16.09
2022-10-07T21:06:43.242Z,16.06
2022-10-07T21:09:10.761Z,16.01
2022-10-07T21:11:37.765Z,15.95
2022-10-07T21:14:04.810Z,15.90
2022-10-07T21:16:32.452Z,15.78
2022-10-07T21:18:59.374Z,15.79
2022-10-07T21:21:26.144Z,15.79
2022-10-07T21:23:53.055Z,15.78
2022-10-07T21:26:20.633Z,15.79
2022-10-07T21:28:48.441Z,15.76
2022-10-07T21:31:17.677Z,15.75
2022-10-07T21:33:46.598Z,15.74
2022-10-07T21:36:19.143Z,15.70
2022-10-07T21:38:46.116Z,15.69
2022-10-07T21:41:13.974Z,15.66
2022-10-07T21:43:41.991Z,15.64
2022-10-07T21:46:09.238Z,15.57
2022-10-07T21:48:35.970Z,15.51
2022-10-07T21:51:08.647Z,15.50
2022-10-07T21:53:36.333Z,15.47
2022-10-07T21:56:08.228Z,15.47
2022-10-07T21:58:35.902Z,15.46
2022-10-07T22:01:03.806Z,15.44
2022-10-07T22:03:30.492Z,15.34
2022-10-07T22:06:11.978Z,15.35
2022-10-07T22:08:39.439Z,15.31
2022-10-07T22:11:16.021Z,15.25
2022-10-07T22:13:51.649Z,15.24
2022-10-07T22:16:19.286Z,15.27
2022-10-07T22:18:50.528Z,15.12
2022-10-07T22:21:19.537Z,15.15
2022-10-07T22:23:50.983Z,15.10
2022-10-07T22:26:19.888Z,15.21
2022-10-07T22:28:46.940Z,15.17
2022-10-07T22:31:15.008Z,15.13
2022-10-07T22:33:42.061Z,15.17
2022-10-07T22:36:11.264Z,15.26
2022-10-07T22:38:38.262Z,15.34
2022-10-07T22:41:10.456Z,15.37
2022-10-07T22:43:40.646Z,15.39
2022-10-07T22:46:07.481Z,15.42
2022-10-07T22:48:34.505Z,15.41
2022-10-07T22:51:08.560Z,15.33
2022-10-07T22:53:36.348Z,15.33
2022-10-07T22:56:07.799Z,15.41
2022-10-07T22:58:34.816Z,15.43
2022-10-07T23:01:15.186Z,15.45
2022-10-07T23:03:44.068Z,15.43
2022-10-07T23:06:12.468Z,15.43
2022-10-07T23:08:39.485Z,15.35
2022-10-07T23:11:07.515Z,15.43
2022-10-07T23:13:36.024Z,15.44
2022-10-07T23:16:05.905Z,15.44
2022-10-07T23:18:33.118Z,15.42
2022-10-07T23:20:59.812Z,15.43
2022-10-07T23:23:27.517Z,15.45
2022-10-07T23:25:54.502Z,15.45
2022-10-07T23:28:22.295Z,15.48
2022-10-07T23:30:50.744Z,15.58
2022-10-07T23:33:17.482Z,15.62
2022-10-07T23:35:44.158Z,15.66
2022-10-07T23:38:12.767Z,15.68
2022-10-07T23:40:39.413Z,15.73
2022-10-07T23:43:06.088Z,15.76
2022-10-07T23:45:33.258Z,15.78
2022-10-07T23:48:00.260Z,15.75
2022-10-07T23:50:27.857Z,15.70
2022-10-07T23:52:54.617Z,15.72
2022-10-07T23:55:21.303Z,15.71
2022-10-07T23:57:48.104Z,15.74
